createdAt,value
2018-11-11T00:53:08.999Z,100.00
2018-11-11T00:55:38.220Z,80.73
2018-11-11T00:58:06.720Z,88.63
2018-11-11T01:00:35.970Z,72.37
2018-11-11T01:03:05.019Z,76.30
2018-11-11T01:05:33.410Z,72.73
2018-11-11T01:08:02.000Z,73.33
2018-11-11T01:10:30.712Z,70.50
2018-11-11T01:12:59.110Z,67.03
2018-11-11T01:15:27.541Z,68.53
2018-11-11T01:17:55.951Z,63.73
2018-11-11T01:20:24.775Z,71.30
2018-11-11T01:22:53.481Z,67.27
2018-11-11T01:25:21.905Z,59.07
2018-11-11T01:27:50.533Z,62.87
2018-11-11T01:30:18.908Z,61.43
2018-11-11T01:32:47.621Z,67.27
2018-11-11T01:35:16.929Z,62.33
2018-11-11T01:37:46.248Z,59.23
2018-11-11T01:40:14.954Z,55.53
2018-11-11T01:42:43.363Z,57.20
2018-11-11T01:45:14.991Z,58.67
2018-11-11T01:47:43.854Z,57.63
2018-11-11T01:50:13.037Z,61.67
2018-11-11T01:52:42.038Z,67.90
2018-11-11T01:55:11.840Z,64.80
2018-11-11T01:57:40.941Z,73.40
2018-11-11T02:00:12.411Z,66.03
2018-11-11T02:02:41.709Z,66.13
2018-11-11T02:05:11.387Z,74.50
2018-11-11T02:07:40.468Z,61.87
2018-11-11T02:10:10.196Z,62.40
2018-11-11T02:12:40.656Z,62.43
2018-11-11T02:15:10.230Z,54.93
2018-11-11T02:17:39.061Z,55.87
2018-11-11T02:20:10.081Z,62.47
2018-11-11T02:22:38.477Z,55.90
2018-11-11T02:25:07.742Z,55.57
2018-11-11T02:27:36.231Z,59.97
2018-11-11T02:30:06.146Z,57.10
2018-11-11T02:32:34.520Z,55.33
2018-11-11T02:35:02.909Z,54.97
2018-11-11T02:37:32.222Z,51.50
2018-11-11T02:40:00.579Z,57.57
2018-11-11T02:42:28.956Z,57.10
2018-11-11T02:44:57.611Z,54.67
2018-11-11T02:47:26.648Z,57.90
2018-11-11T02:49:55.034Z,56.37
2018-11-11T02:52:23.994Z,55.93
2018-11-11T02:54:52.863Z,61.63
2018-11-11T02:57:21.245Z,60.67
2018-11-11T02:59:49.772Z,59.83
2018-11-11T03:02:18.192Z,57.63
2018-11-11T03:04:46.579Z,57.80
2018-11-11T03:07:14.958Z,54.00
2018-11-11T03:09:43.599Z,56.80
2018-11-11T03:12:12.265Z,53.17
2018-11-11T03:14:40.672Z,61.20
2018-11-11T03:17:09.050Z,54.50
2018-11-11T03:19:37.455Z,58.13
2018-11-11T03:22:06.137Z,65.20
2018-11-11T03:24:34.547Z,61.50
2018-11-11T03:27:02.901Z,55.87
2018-11-11T03:29:31.267Z,46.50
2018-11-11T03:31:59.958Z,50.50
2018-11-11T03:34:28.329Z,45.30
2018-11-11T03:36:56.983Z,47.23
2018-11-11T03:39:25.549Z,44.03
2018-11-11T03:41:53.952Z,48.20
2018-11-11T03:44:22.707Z,47.43
2018-11-11T03:46:59.345Z,51.87
2018-11-11T03:49:27.929Z,47.27
2018-11-11T03:51:56.297Z,47.50
2018-11-11T03:54:24.683Z,42.00
2018-11-11T03:56:53.061Z,34.27
2018-11-11T03:59:21.955Z,36.57
2018-11-11T04:01:50.861Z,32.90
2018-11-11T04:04:19.589Z,33.27
2018-11-11T04:06:48.225Z,33.47
2018-11-11T04:09:16.636Z,33.17
2018-11-11T04:11:45.005Z,32.80
2018-11-11T04:14:13.400Z,37.40
2018-11-11T04:16:41.793Z,37.73
2018-11-11T04:19:10.378Z,37.20
2018-11-11T04:21:39.208Z,37.20
2018-11-11T04:24:08.515Z,39.50
2018-11-11T04:26:37.124Z,41.87
2018-11-11T04:29:05.530Z,38.60
2018-11-11T04:31:34.185Z,43.43
2018-11-11T04:34:02.798Z,43.40
2018-11-11T04:36:31.165Z,49.10
2018-11-11T04:38:59.556Z,44.77
2018-11-11T04:41:28.375Z,44.37
2018-11-11T04:43:56.768Z,47.60
2018-11-11T04:46:25.643Z,49.40
2018-11-11T04:48:54.062Z,53.47
2018-11-11T04:51:22.754Z,52.43
2018-11-11T04:53:51.437Z,49.70
2018-11-11T04:56:19.840Z,51.37
2018-11-11T04:58:48.784Z,43.80
2018-11-11T05:01:17.236Z,44.07
2018-11-11T05:03:45.899Z,43.63
2018-11-11T05:06:14.274Z,40.50
2018-11-11T05:08:44.062Z,71.37
2018-11-11T05:11:12.568Z,43.63
2018-11-11T05:13:40.964Z,43.53
2018-11-11T05:16:09.565Z,49.83
2018-11-11T05:18:38.925Z,44.23
2018-11-11T05:21:07.319Z,44.40
2018-11-11T05:23:35.746Z,44.37
2018-11-11T05:26:04.334Z,45.93
2018-11-11T05:28:32.751Z,44.60
2018-11-11T05:31:01.233Z,52.03
2018-11-11T05:33:29.830Z,47.97
2018-11-11T05:35:58.165Z,49.60
2018-11-11T05:38:26.563Z,50.13
2018-11-11T05:40:54.978Z,52.47
2018-11-11T05:43:23.641Z,48.47
2018-11-11T05:45:52.296Z,49.37
2018-11-11T05:48:20.702Z,42.33
2018-11-11T05:50:49.368Z,39.77
2018-11-11T05:53:18.072Z,44.90
2018-11-11T05:55:46.479Z,46.07
2018-11-11T05:58:15.187Z,49.20
2018-11-11T06:00:44.093Z,45.83
2018-11-11T06:03:12.503Z,48.93
2018-11-11T06:05:40.883Z,45.20
2018-11-11T06:08:09.271Z,45.40
2018-11-11T06:10:38.428Z,43.77
2018-11-11T06:13:07.200Z,40.13
2018-11-11T06:15:35.913Z,41.23
2018-11-11T06:18:04.873Z,40.43
2018-11-11T06:20:33.592Z,42.93
2018-11-11T06:23:02.573Z,43.90
2018-11-11T06:25:30.930Z,40.53
2018-11-11T06:27:59.600Z,43.47
2018-11-11T06:30:27.984Z,43.93
2018-11-11T06:32:56.695Z,41.43
2018-11-11T06:35:25.124Z,41.27
2018-11-11T06:37:53.485Z,40.83
2018-11-11T06:40:21.866Z,43.07
2018-11-11T06:42:50.593Z,40.93
2018-11-11T06:45:19.244Z,36.63
2018-11-11T06:47:48.258Z,40.07
2018-11-11T06:50:16.716Z,38.10
2018-11-11T06:52:45.230Z,37.10
2018-11-11T06:55:14.174Z,33.30
2018-11-11T06:57:42.935Z,33.30
2018-11-11T07:00:14.436Z,33.90
2018-11-11T07:02:53.991Z,39.10
2018-11-11T07:05:22.358Z,37.53
2018-11-11T07:07:50.919Z,35.63
2018-11-11T07:10:19.612Z,38.90
2018-11-11T07:12:47.990Z,37.30
2018-11-11T07:15:16.393Z,38.07
2018-11-11T07:17:45.894Z,37.80
2018-11-11T07:20:14.760Z,35.27
2018-11-11T07:22:43.653Z,33.23
2018-11-11T07:25:12.454Z,31.17
2018-11-11T07:27:40.893Z,32.20
2018-11-11T07:30:09.314Z,40.40
2018-11-11T07:32:38.747Z,36.10
2018-11-11T07:35:08.699Z,40.33
2018-11-11T07:37:37.113Z,38.00
2018-11-11T07:40:07.670Z,40.43
2018-11-11T07:42:36.591Z,33.67
2018-11-11T07:45:05.276Z,30.27
2018-11-11T07:47:34.484Z,32.40
2018-11-11T07:50:02.896Z,31.37
2018-11-11T07:52:31.548Z,33.10
2018-11-11T07:55:00.036Z,31.03
2018-11-11T07:57:28.396Z,33.50
2018-11-11T07:59:56.803Z,33.77
2018-11-11T08:02:25.428Z,27.87
2018-11-11T08:04:53.840Z,27.70
2018-11-11T08:07:22.628Z,28.37
2018-11-11T08:09:51.453Z,27.47
2018-11-11T08:12:20.076Z,27.23
2018-11-11T08:14:48.478Z,28.03
2018-11-11T08:17:17.328Z,25.93
2018-11-11T08:19:45.917Z,28.17
2018-11-11T08:22:14.348Z,26.80
2018-11-11T08:24:42.785Z,25.70
2018-11-11T08:27:11.293Z,22.97
2018-11-11T08:29:39.734Z,25.27
2018-11-11T08:32:08.206Z,24.00
2018-11-11T08:34:36.985Z,23.93
2018-11-11T08:37:06.216Z,22.90
2018-11-11T08:39:34.746Z,23.37
2018-11-11T08:42:03.162Z,23.17
2018-11-11T08:44:31.559Z,22.13
2018-11-11T08:47:00.428Z,20.97
2018-11-11T08:49:28.853Z,23.40
2018-11-11T08:51:57.249Z,22.13
2018-11-11T08:54:26.228Z,23.10
2018-11-11T08:56:54.643Z,23.10
2018-11-11T08:59:23.248Z,24.93
2018-11-11T09:01:51.711Z,21.93
2018-11-11T09:04:20.111Z,26.83
2018-11-11T09:06:48.703Z,26.03
2018-11-11T09:09:17.124Z,25.60
2018-11-11T09:11:45.564Z,24.90
2018-11-11T09:14:14.360Z,23.57
2018-11-11T09:16:42.746Z,24.60
2018-11-11T09:19:11.165Z,25.80
2018-11-11T09:21:40.467Z,25.17
2018-11-11T09:24:09.276Z,25.93
2018-11-11T09:26:37.994Z,24.57
2018-11-11T09:29:07.025Z,22.93
2018-11-11T09:31:35.953Z,25.17
2018-11-11T09:34:04.442Z,23.10
2018-11-11T09:36:33.255Z,20.30
2018-11-11T09:39:01.700Z,24.17
2018-11-11T09:41:30.336Z,21.07
2018-11-11T09:43:58.783Z,19.47
2018-11-11T09:46:28.353Z,19.97
2018-11-11T09:48:56.746Z,19.37
2018-11-11T09:51:25.318Z,19.43
2018-11-11T09:53:53.798Z,19.03
2018-11-11T09:56:22.420Z,18.20
2018-11-11T09:58:51.447Z,17.27
2018-11-11T10:01:20.755Z,15.63
2018-11-11T10:04:09.906Z,15.43
2018-11-11T10:06:43.554Z,16.17
2018-11-11T10:09:21.632Z,15.87
2018-11-11T10:13:59.672Z,17.17
2018-11-11T10:17:02.414Z,18.60
2018-11-11T10:19:36.840Z,17.00
2018-11-11T10:22:11.507Z,18.50
2018-11-11T10:24:46.560Z,16.20
2018-11-11T10:27:22.379Z,18.40
2018-11-11T10:30:09.624Z,16.30
2018-11-11T10:32:56.387Z,17.33
2018-11-11T10:35:34.168Z,16.60
2018-11-11T10:38:06.927Z,19.00
2018-11-11T10:42:45.343Z,16.77
2018-11-11T10:45:18.437Z,17.67
2018-11-11T10:47:52.623Z,19.70
2018-11-11T10:50:24.189Z,19.87
2018-11-11T10:52:52.596Z,19.60
2018-11-11T10:55:21.130Z,21.80
2018-11-11T10:57:49.803Z,19.03
2018-11-11T11:00:23.639Z,20.10
2018-11-11T11:02:56.413Z,20.63
2018-11-11T11:05:24.868Z,21.40
2018-11-11T11:07:53.972Z,18.80
2018-11-11T11:10:22.494Z,19.63
2018-11-11T11:12:51.292Z,20.70
2018-11-11T11:15:20.721Z,20.90
2018-11-11T11:17:49.200Z,19.63
2018-11-11T11:20:17.761Z,20.57
2018-11-11T11:22:46.270Z,21.50
2018-11-11T11:25:14.721Z,20.70
2018-11-11T11:27:43.140Z,20.07
2018-11-11T11:30:13.079Z,20.57
2018-11-11T11:32:41.564Z,18.50
2018-11-11T11:35:10.841Z,19.00
2018-11-11T11:37:40.271Z,19.87
2018-11-11T11:40:09.866Z,17.93
2018-11-11T11:42:39.039Z,19.60
2018-11-11T11:45:09.138Z,18.63
2018-11-11T11:47:38.470Z,21.33
2018-11-11T11:50:08.866Z,18.60
2018-11-11T11:52:37.497Z,20.03
2018-11-11T11:55:06.827Z,18.67
2018-11-11T11:57:35.224Z,17.73
2018-11-11T12:00:04.229Z,19.07
2018-11-11T12:02:32.670Z,17.87
2018-11-11T12:05:01.178Z,17.80
2018-11-11T12:07:29.606Z,18.37
2018-11-11T12:09:58.600Z,17.93
2018-11-11T12:12:26.986Z,18.00
2018-11-11T12:14:55.620Z,21.00
2018-11-11T12:17:24.015Z,20.93
2018-11-11T12:19:52.755Z,18.93
2018-11-11T12:22:21.268Z,19.43
2018-11-11T12:24:50.266Z,18.93
2018-11-11T12:27:19.172Z,17.23
2018-11-11T12:29:47.764Z,18.70
2018-11-11T12:32:16.613Z,23.73
2018-11-11T12:34:45.189Z,24.30
2018-11-11T12:37:13.694Z,34.37
2018-11-11T12:39:42.191Z,22.13
2018-11-11T12:42:10.619Z,21.63
2018-11-11T12:44:39.562Z,18.57
2018-11-11T12:47:08.275Z,18.93
2018-11-11T12:49:36.666Z,27.40
2018-11-11T12:52:05.838Z,19.70
2018-11-11T12:54:34.283Z,17.03
2018-11-11T12:57:03.076Z,16.40
2018-11-11T12:59:31.658Z,17.10
2018-11-11T13:02:00.708Z,16.97
2018-11-11T13:04:29.582Z,16.23
2018-11-11T13:06:57.949Z,17.73
2018-11-11T13:09:26.763Z,15.47
2018-11-11T13:11:55.456Z,17.27
2018-11-11T13:14:24.000Z,16.47
2018-11-11T13:16:52.542Z,17.93
2018-11-11T13:19:21.464Z,16.67
2018-11-11T13:21:49.877Z,17.33
2018-11-11T13:24:18.798Z,18.30
2018-11-11T13:26:47.265Z,16.57
2018-11-11T13:29:15.672Z,17.13
2018-11-11T13:31:44.135Z,17.10
2018-11-11T13:34:13.290Z,18.90
2018-11-11T13:36:41.660Z,16.63
2018-11-11T13:39:12.337Z,18.60
2018-11-11T13:41:41.388Z,20.13
2018-11-11T13:44:10.384Z,18.23
2018-11-11T13:46:40.533Z,19.10
2018-11-11T13:49:08.800Z,18.80
2018-11-11T13:51:38.142Z,17.63
2018-11-11T13:54:07.309Z,17.10
2018-11-11T13:56:37.280Z,16.27
2018-11-11T13:59:06.273Z,18.03
2018-11-11T14:01:35.019Z,17.50
2018-11-11T14:04:03.628Z,18.10
2018-11-11T14:06:32.632Z,17.97
2018-11-11T14:09:01.046Z,18.00
2018-11-11T14:11:30.047Z,18.17
2018-11-11T14:13:58.896Z,20.60
2018-11-11T14:16:27.417Z,17.93
2018-11-11T14:18:56.109Z,17.70
2018-11-11T14:21:24.268Z,20.20
2018-11-11T14:23:53.165Z,19.63
2018-11-11T14:26:21.925Z,19.70
2018-11-11T14:28:50.267Z,22.33
2018-11-11T14:31:19.138Z,13.97
2018-11-11T14:33:48.273Z,19.07
2018-11-11T14:36:17.350Z,18.00
2018-11-11T14:38:45.777Z,16.83
2018-11-11T14:41:14.190Z,19.67
2018-11-11T14:43:42.621Z,19.33
2018-11-11T14:46:11.366Z,17.47
2018-11-11T14:48:39.780Z,19.97
2018-11-11T14:51:08.656Z,19.43
2018-11-11T14:53:37.091Z,19.10
2018-11-11T14:56:06.396Z,18.37
2018-11-11T14:58:34.961Z,19.97
2018-11-11T15:01:03.259Z,17.57
2018-11-11T15:03:32.140Z,19.57
2018-11-11T15:06:00.948Z,18.60
2018-11-11T15:08:29.508Z,22.27
2018-11-11T15:10:58.207Z,21.37
2018-11-11T15:13:26.901Z,19.63
2018-11-11T15:15:55.556Z,19.20
2018-11-11T15:18:23.967Z,21.07
2018-11-11T15:20:52.996Z,19.73
2018-11-11T15:23:21.298Z,21.63
2018-11-11T15:25:49.710Z,22.00
2018-11-11T15:28:18.127Z,23.03
2018-11-11T15:30:47.101Z,20.67
2018-11-11T15:33:16.064Z,22.40
2018-11-11T15:35:44.758Z,21.40
2018-11-11T15:38:13.158Z,21.93
2018-11-11T15:40:41.598Z,22.73
2018-11-11T15:43:10.181Z,27.13
2018-11-11T15:45:38.587Z,27.00
2018-11-11T15:48:08.111Z,26.73
2018-11-11T15:50:37.120Z,28.00
2018-11-11T15:53:07.396Z,29.77
2018-11-11T15:55:37.569Z,29.80
2018-11-11T15:58:06.600Z,31.73
2018-11-11T16:00:36.508Z,31.17
2018-11-11T16:03:05.465Z,30.27
2018-11-11T16:05:34.770Z,37.17
2018-11-11T16:08:04.058Z,37.43
2018-11-11T16:10:33.465Z,37.50
2018-11-11T16:13:02.107Z,38.43
2018-11-11T16:15:34.092Z,41.50
2018-11-11T16:18:06.106Z,40.13
2018-11-11T16:20:35.167Z,44.53
2018-11-11T16:23:05.441Z,44.53
2018-11-11T16:25:34.951Z,44.77
2018-11-11T16:28:03.689Z,43.80
2018-11-11T16:30:33.436Z,48.27
2018-11-11T16:33:02.479Z,45.57
2018-11-11T16:35:31.759Z,44.03
2018-11-11T16:38:00.880Z,46.07
2018-11-11T16:40:31.891Z,46.97
2018-11-11T16:43:01.329Z,42.77
2018-11-11T16:45:31.745Z,43.30
2018-11-11T16:48:00.885Z,48.70
2018-11-11T16:50:32.306Z,45.20
2018-11-11T16:53:05.457Z,48.67
2018-11-11T16:55:35.505Z,47.23
2018-11-11T16:58:04.423Z,47.83
2018-11-11T17:00:35.210Z,46.47
2018-11-11T17:03:04.679Z,48.13
2018-11-11T17:05:34.464Z,44.00
2018-11-11T17:08:02.889Z,46.93
2018-11-11T17:10:33.457Z,45.47
2018-11-11T17:13:04.912Z,44.97
2018-11-11T17:15:34.105Z,47.77
2018-11-11T17:18:03.182Z,49.37
2018-11-11T17:20:31.686Z,50.20
2018-11-11T17:23:02.055Z,51.13
2018-11-11T17:25:30.782Z,50.23
2018-11-11T17:27:59.710Z,52.07
2018-11-11T17:30:29.416Z,49.87
2018-11-11T17:32:58.875Z,49.33
2018-11-11T17:35:27.316Z,51.00
2018-11-11T17:37:55.735Z,52.87
2018-11-11T17:40:26.942Z,55.83
2018-11-11T17:42:56.013Z,55.67
2018-11-11T17:45:24.835Z,53.30
2018-11-11T17:47:54.174Z,61.13
2018-11-11T17:50:24.758Z,51.87
2018-11-11T17:52:53.244Z,53.73
2018-11-11T17:55:22.956Z,57.23
2018-11-11T17:57:51.781Z,54.70
2018-11-11T18:00:22.380Z,53.27
2018-11-11T18:02:51.379Z,54.80
2018-11-11T18:05:21.736Z,55.77
2018-11-11T18:07:50.154Z,55.83
2018-11-11T18:10:20.097Z,54.43
2018-11-11T18:12:48.725Z,55.70
2018-11-11T18:15:22.280Z,53.23
2018-11-11T18:17:50.736Z,54.90
2018-11-11T18:20:20.942Z,53.70
2018-11-11T18:22:50.453Z,52.47
2018-11-11T18:25:18.949Z,50.30
2018-11-11T18:27:47.556Z,51.43
2018-11-11T18:30:18.978Z,55.50
2018-11-11T18:32:47.604Z,56.23
2018-11-11T18:35:17.372Z,55.50
2018-11-11T18:37:46.017Z,59.70
2018-11-11T18:40:16.581Z,52.97
2018-11-11T18:42:45.666Z,56.63
2018-11-11T18:45:15.672Z,56.27
2018-11-11T18:47:44.580Z,61.07
2018-11-11T18:50:16.957Z,60.37
2018-11-11T18:52:45.637Z,65.20
2018-11-11T18:55:14.588Z,76.83
2018-11-11T18:57:43.844Z,68.73
2018-11-11T19:00:30.590Z,68.53
2018-11-11T19:03:00.039Z,66.17
2018-11-11T19:05:29.227Z,62.13
2018-11-11T19:07:58.112Z,68.13
2018-11-11T19:10:29.403Z,64.50
2018-11-11T19:13:00.859Z,63.53
2018-11-11T19:15:29.362Z,66.20
2018-11-11T19:17:57.849Z,68.57
2018-11-11T19:20:27.032Z,62.70
2018-11-11T19:22:56.179Z,65.93
2018-11-11T19:25:28.426Z,73.67
2018-11-11T19:27:58.130Z,71.43
2018-11-11T19:30:27.753Z,67.90
2018-11-11T19:32:56.540Z,78.90
2018-11-11T19:35:25.124Z,77.53
2018-11-11T19:37:55.036Z,70.53
2018-11-11T19:40:25.291Z,82.80
2018-11-11T19:42:56.180Z,74.23
2018-11-11T19:45:25.800Z,75.97
2018-11-11T19:47:54.265Z,69.67
2018-11-11T19:50:24.635Z,67.90
2018-11-11T19:52:54.144Z,72.60
2018-11-11T19:55:23.731Z,69.13
2018-11-11T19:57:52.682Z,78.13
2018-11-11T20:00:23.608Z,72.13
2018-11-11T20:02:53.594Z,75.80
2018-11-11T20:05:23.130Z,66.80
2018-11-11T20:07:53.982Z,68.13
2018-11-11T20:10:23.619Z,66.40
2018-11-11T20:12:52.340Z,74.43
2018-11-11T20:15:22.853Z,68.10
2018-11-11T20:17:51.508Z,61.77
2018-11-11T20:20:22.201Z,77.37
2018-11-11T20:22:51.174Z,76.73
2018-11-11T20:25:20.622Z,67.40
2018-11-11T20:27:49.536Z,74.10
2018-11-11T20:30:25.992Z,65.20
2018-11-11T20:32:54.801Z,88.20
2018-11-11T20:47:42.330Z,92.90
2018-11-11T20:50:14.518Z,85.97
2018-11-11T20:52:44.343Z,91.50
2018-11-11T20:55:13.422Z,85.63
2018-11-11T20:57:42.612Z,93.53
2018-11-11T21:00:14.548Z,84.47
2018-11-11T21:02:43.385Z,81.13
2018-11-11T21:05:13.713Z,75.80
2018-11-11T21:07:42.423Z,73.30
2018-11-11T21:10:16.804Z,69.60
2018-11-11T21:12:46.006Z,71.67
2018-11-11T21:15:16.323Z,67.00
2018-11-11T21:17:45.293Z,65.23
2018-11-11T21:20:15.381Z,65.20
2018-11-11T21:22:44.024Z,66.60
2018-11-11T21:25:13.126Z,64.07
2018-11-11T21:27:42.736Z,61.43
2018-11-11T21:30:16.343Z,67.33
2018-11-11T21:32:45.108Z,60.87
2018-11-11T21:35:13.774Z,65.40
2018-11-11T21:37:42.911Z,63.87
2018-11-11T21:40:14.280Z,62.53
2018-11-11T21:42:43.425Z,73.53
2018-11-11T21:45:14.798Z,74.17
2018-11-11T21:47:44.390Z,84.90
2018-11-11T21:50:16.435Z,84.20
2018-11-11T21:52:50.873Z,81.07
2018-11-11T21:55:19.678Z,89.80
2018-11-11T21:57:48.209Z,76.03
2018-11-11T22:00:16.626Z,86.37
2018-11-11T22:02:46.042Z,72.23
2018-11-11T22:05:15.052Z,74.43
2018-11-11T22:07:43.613Z,66.17
2018-11-11T22:10:13.796Z,59.80
2018-11-11T22:12:42.221Z,65.50
2018-11-11T22:15:12.282Z,62.97
2018-11-11T22:17:41.954Z,61.00
2018-11-11T22:20:11.291Z,58.27
2018-11-11T22:22:40.758Z,56.47
2018-11-11T22:25:09.391Z,54.87
2018-11-11T22:27:38.013Z,59.67
2018-11-11T22:30:13.732Z,56.70
